createdAt,value
2022-08-18T06:13:20.926Z,7.07
2022-08-18T06:15:52.830Z,8.02
2022-08-18T08:53:24.940Z,2.95
2022-08-18T08:56:01.581Z,3.38
2022-08-18T08:58:33.344Z,3.50
2022-08-18T09:01:01.122Z,8.02
2022-08-18T17:47:27.472Z,2.22
2022-08-18T17:50:28.040Z,1.77
2022-08-18T17:55:25.592Z,2.17
2022-08-18T17:57:58.738Z,1.05
2022-08-18T18:12:45.708Z,1.17
2022-08-18T18:15:14.421Z,4.68
2022-08-18T18:17:43.527Z,4.35
2022-08-18T18:20:15.597Z,1.45
2022-08-18T18:22:44.804Z,1.70
2022-08-18T18:25:13.542Z,1.90
2022-08-18T18:57:20.888Z,1.70
2022-08-18T19:34:52.701Z,3.20
2022-08-18T19:37:27.393Z,5.13
2022-08-18T19:40:03.155Z,3.53
2022-08-18T19:42:35.294Z,3.95
2022-08-18T19:45:18.543Z,3.58
2022-08-18T19:47:49.670Z,3.22
2022-08-18T19:50:32.163Z,4.10
2022-08-18T19:53:08.359Z,3.90
2022-08-18T19:55:41.809Z,4.05
2022-08-18T19:58:24.194Z,2.95
2022-08-18T20:00:56.215Z,2.58
2022-08-18T20:03:30.099Z,5.50
2022-08-18T20:06:33.352Z,3.78
2022-08-18T20:09:13.020Z,4.30
2022-08-18T20:11:50.268Z,4.13
2022-08-18T20:14:19.525Z,3.78
2022-08-18T20:17:03.933Z,4.40
2022-08-18T20:19:49.663Z,4.90
2022-08-18T20:22:32.692Z,3.90
2022-08-18T20:25:05.654Z,3.53
2022-08-18T20:27:35.928Z,3.67
2022-08-18T20:30:22.520Z,3.45
2022-08-18T20:33:05.329Z,4.68
2022-08-18T20:35:37.495Z,3.05
2022-08-18T20:38:14.609Z,3.10
2022-08-18T20:40:44.600Z,3.90
2022-08-18T20:43:24.398Z,3.27
2022-08-18T20:45:55.151Z,4.70
2022-08-18T20:48:28.937Z,6.25
2022-08-18T20:51:03.274Z,3.95
2022-08-18T20:53:50.360Z,4.30
2022-08-18T20:56:32.132Z,4.22
2022-08-18T20:59:16.537Z,3.85
2022-08-18T21:01:43.885Z,2.95
2022-08-18T21:04:11.541Z,3.38
2022-08-18T21:06:41.907Z,3.63
2022-08-18T21:09:11.268Z,3.83
2022-08-18T21:11:41.344Z,4.50
2022-08-18T21:14:09.094Z,3.53
2022-08-18T21:16:39.173Z,5.50
2022-08-18T21:19:08.708Z,5.03
2022-08-18T21:21:37.551Z,4.72
2022-08-18T21:24:05.750Z,4.00
2022-08-18T21:26:35.349Z,4.25
2022-08-18T21:29:06.317Z,3.83
2022-08-18T21:31:42.124Z,4.28
2022-08-18T21:34:13.379Z,4.47
2022-08-18T21:36:50.746Z,4.60
2022-08-18T21:39:19.877Z,4.05
2022-08-18T21:41:49.551Z,5.28
2022-08-18T21:44:18.921Z,5.43
2022-08-18T21:46:47.305Z,4.60
2022-08-18T21:49:23.381Z,5.30
2022-08-18T21:51:52.451Z,5.38
2022-08-18T21:54:20.827Z,5.10
2022-08-18T21:56:49.896Z,5.38
2022-08-18T21:59:18.487Z,5.30
2022-08-18T22:01:48.957Z,5.93
2022-08-18T22:04:22.351Z,5.40
2022-08-18T22:06:51.613Z,5.57
2022-08-18T22:09:37.561Z,5.40
2022-08-18T22:12:47.094Z,5.50
2022-08-18T22:15:16.371Z,5.63
2022-08-18T22:17:50.603Z,5.88
2022-08-18T22:20:40.455Z,5.85
2022-08-18T22:23:28.322Z,5.82
2022-08-18T22:26:06.136Z,6.05
2022-08-18T22:28:36.747Z,6.82
2022-08-18T22:31:04.179Z,7.18
2022-08-18T22:33:31.592Z,9.70
2022-08-18T22:35:59.176Z,7.90
2022-08-18T22:38:27.621Z,8.45
2022-08-18T22:40:55.091Z,8.07
2022-08-18T22:43:22.521Z,8.27
2022-08-18T22:45:51.272Z,7.85
2022-08-18T22:48:18.661Z,8.40
2022-08-18T22:50:46.615Z,8.55
2022-08-18T22:53:14.763Z,8.45
2022-08-18T22:55:42.321Z,9.20
2022-08-18T22:58:10.383Z,8.88
2022-08-18T23:00:38.951Z,9.82
2022-08-18T23:03:10.968Z,10.00
2022-08-18T23:05:38.617Z,9.82
2022-08-18T23:08:06.044Z,9.60
2022-08-18T23:10:33.432Z,9.60
2022-08-18T23:13:04.203Z,10.02
2022-08-18T23:15:55.011Z,9.65
2022-08-18T23:18:44.081Z,9.90
2022-08-18T23:21:11.480Z,9.85
2022-08-18T23:23:58.857Z,9.18
2022-08-18T23:26:26.295Z,9.05
2022-08-18T23:28:56.938Z,9.33
2022-08-18T23:31:24.295Z,9.50
2022-08-18T23:33:53.077Z,9.73
2022-08-18T23:36:20.439Z,10.57
2022-08-18T23:38:47.879Z,10.18
2022-08-18T23:41:16.222Z,9.70
2022-08-18T23:43:43.628Z,9.52
2022-08-18T23:46:17.100Z,9.57
2022-08-18T23:48:50.214Z,10.70
2022-08-18T23:51:29.117Z,9.52
2022-08-18T23:53:58.790Z,9.60
2022-08-18T23:56:27.985Z,9.48
2022-08-18T23:58:57.042Z,9.70
